createdAt,value
2023-03-29T00:02:59.399Z,9.27
2023-03-29T00:06:03.954Z,9.27
2023-03-29T00:09:05.933Z,9.24
2023-03-29T00:12:13.731Z,9.20
2023-03-29T00:15:20.598Z,9.33
2023-03-29T00:18:23.174Z,9.28
2023-03-29T00:21:25.104Z,9.35
2023-03-29T00:27:47.888Z,9.28
2023-03-29T00:30:50.912Z,9.32
2023-03-29T00:33:55.799Z,9.57
2023-03-29T00:36:59.082Z,9.75
2023-03-29T00:40:00.738Z,9.76
2023-03-29T00:43:16.121Z,9.65
2023-03-29T00:46:23.453Z,9.38
2023-03-29T00:49:26.282Z,9.30
2023-03-29T00:52:32.264Z,9.48
2023-03-29T00:55:47.422Z,9.72
2023-03-29T00:59:00.115Z,10.02
2023-03-29T01:02:05.683Z,9.89
2023-03-29T01:05:31.646Z,9.37
2023-03-29T01:08:44.658Z,9.00
2023-03-29T01:11:56.141Z,8.88
2023-03-29T01:15:16.553Z,8.83
2023-03-29T01:18:23.066Z,8.93
2023-03-29T01:21:51.509Z,9.03
2023-03-29T01:25:40.528Z,9.21
2023-03-29T01:28:50.586Z,9.14
2023-03-29T01:31:58.161Z,9.10
2023-03-29T01:35:10.348Z,8.85
2023-03-29T01:38:28.117Z,8.87
2023-03-29T01:41:43.030Z,8.82
2023-03-29T01:45:03.368Z,8.91
2023-03-29T01:48:24.256Z,8.84
2023-03-29T01:51:34.447Z,8.91
2023-03-29T01:54:41.553Z,8.86
2023-03-29T01:57:46.040Z,8.75
2023-03-29T02:00:49.215Z,8.89
2023-03-29T02:04:03.103Z,8.82
2023-03-29T02:07:10.624Z,8.93
2023-03-29T02:10:18.976Z,8.76
2023-03-29T02:13:21.654Z,8.81
2023-03-29T02:16:24.190Z,8.71
2023-03-29T02:19:30.365Z,8.64
2023-03-29T02:22:41.174Z,8.58
2023-03-29T02:25:45.670Z,8.59
2023-03-29T02:28:48.004Z,8.64
2023-03-29T02:35:54.564Z,8.85
2023-03-29T02:38:59.959Z,8.78
2023-03-29T02:42:05.692Z,8.80
2023-03-29T02:45:14.549Z,8.76
2023-03-29T02:48:19.975Z,8.86
2023-03-29T02:51:26.352Z,8.86
2023-03-29T02:54:31.667Z,8.92
2023-03-29T02:57:39.429Z,8.92
2023-03-29T03:00:46.507Z,9.00
2023-03-29T03:03:50.672Z,9.03
2023-03-29T03:06:52.872Z,9.00
2023-03-29T03:09:54.458Z,8.96
2023-03-29T03:12:56.334Z,9.11
2023-03-29T03:16:05.731Z,9.65
2023-03-29T03:19:07.350Z,9.40
2023-03-29T03:22:09.980Z,9.79
2023-03-29T03:25:13.977Z,9.82
2023-03-29T03:28:16.326Z,9.92
2023-03-29T03:31:19.661Z,10.04
2023-03-29T03:34:53.540Z,10.04
2023-03-29T03:38:00.969Z,10.13
2023-03-29T03:41:02.916Z,10.09
2023-03-29T03:44:11.847Z,10.16
2023-03-29T03:47:14.573Z,10.21
2023-03-29T03:50:17.717Z,10.13
2023-03-29T03:53:20.531Z,10.21
2023-03-29T03:56:57.434Z,10.11
2023-03-29T04:00:24.254Z,9.95
2023-03-29T04:03:47.344Z,9.76
2023-03-29T04:06:51.314Z,9.42
2023-03-29T04:09:58.091Z,9.27
2023-03-29T04:13:22.476Z,9.24
2023-03-29T04:16:44.936Z,9.50
2023-03-29T04:20:15.529Z,9.35
2023-03-29T04:23:23.480Z,9.28
2023-03-29T04:26:25.914Z,9.20
2023-03-29T04:29:36.154Z,9.21
2023-03-29T04:32:50.030Z,9.15
2023-03-29T04:35:53.463Z,9.02
2023-03-29T04:38:56.267Z,8.90
2023-03-29T04:42:07.490Z,8.73
2023-03-29T04:45:10.002Z,8.64
2023-03-29T04:48:34.061Z,8.63
2023-03-29T04:51:38.423Z,8.54
2023-03-29T04:54:43.412Z,8.57
2023-03-29T04:57:59.597Z,8.51
2023-03-29T05:01:10.525Z,8.61
2023-03-29T05:04:18.394Z,8.60
2023-03-29T05:07:46.911Z,8.74
2023-03-29T05:10:51.973Z,8.93
2023-03-29T05:14:02.772Z,9.17
2023-03-29T05:17:09.517Z,9.06
2023-03-29T05:20:12.761Z,8.73
2023-03-29T05:23:42.197Z,8.62
2023-03-29T05:27:22.988Z,8.51
2023-03-29T05:30:44.565Z,8.56
2023-03-29T05:34:02.594Z,8.82
2023-03-29T05:37:05.697Z,8.87
2023-03-29T05:40:33.937Z,9.04
2023-03-29T05:43:53.864Z,8.93
2023-03-29T05:47:00.351Z,8.80
2023-03-29T05:50:02.173Z,8.84
2023-03-29T05:53:17.609Z,8.89
2023-03-29T05:56:22.570Z,9.06
2023-03-29T05:59:28.230Z,9.07
2023-03-29T06:02:30.674Z,9.00
2023-03-29T06:05:35.096Z,9.11
2023-03-29T06:08:37.690Z,9.19
2023-03-29T06:12:01.766Z,9.31
2023-03-29T06:15:13.275Z,9.13
2023-03-29T06:18:27.807Z,8.98
2023-03-29T06:21:30.340Z,9.03
2023-03-29T06:24:32.260Z,9.06
2023-03-29T06:27:39.334Z,9.13
2023-03-29T06:30:46.034Z,9.23
2023-03-29T06:33:49.443Z,9.24
2023-03-29T06:37:12.959Z,9.23
2023-03-29T06:40:37.649Z,9.36
2023-03-29T06:43:39.778Z,9.41
2023-03-29T06:46:43.230Z,9.55
2023-03-29T06:49:51.956Z,9.62
2023-03-29T06:53:14.098Z,9.70
2023-03-29T06:56:26.238Z,9.87
2023-03-29T06:59:48.320Z,10.26
2023-03-29T07:03:41.489Z,10.43
2023-03-29T07:06:48.348Z,10.48
2023-03-29T07:10:07.367Z,10.68
2023-03-29T07:13:27.720Z,10.79
2023-03-29T07:16:39.130Z,10.88
2023-03-29T07:20:08.201Z,10.85
2023-03-29T07:23:20.245Z,10.91
2023-03-29T07:26:28.837Z,11.10
2023-03-29T07:29:33.120Z,10.96
2023-03-29T07:32:45.484Z,10.88
2023-03-29T07:36:11.106Z,10.93
2023-03-29T07:39:13.641Z,11.03
2023-03-29T07:42:19.282Z,11.19
2023-03-29T07:45:26.832Z,11.28
2023-03-29T07:48:36.424Z,11.33
2023-03-29T07:51:42.983Z,11.36
2023-03-29T07:54:51.399Z,11.19
2023-03-29T07:58:14.501Z,11.05
2023-03-29T08:01:19.808Z,11.14
2023-03-29T08:04:43.444Z,11.22
2023-03-29T08:07:49.072Z,11.34
2023-03-29T08:11:10.185Z,11.60
2023-03-29T08:14:34.763Z,11.45
2023-03-29T08:17:42.580Z,11.62
2023-03-29T08:20:44.419Z,11.68
2023-03-29T08:23:48.338Z,12.00
2023-03-29T08:26:54.474Z,12.25
2023-03-29T08:29:56.127Z,12.33
2023-03-29T08:33:02.112Z,12.29
2023-03-29T08:36:10.516Z,12.53
2023-03-29T08:39:20.977Z,12.64
2023-03-29T08:43:14.763Z,12.82
2023-03-29T08:47:00.039Z,12.91
2023-03-29T08:50:14.670Z,12.88
2023-03-29T08:53:27.708Z,12.75
2023-03-29T08:56:54.288Z,12.84
2023-03-29T09:00:10.526Z,13.04
2023-03-29T09:03:40.474Z,13.15
2023-03-29T09:06:49.114Z,13.43
2023-03-29T09:10:00.541Z,13.41
2023-03-29T09:13:28.786Z,13.47
2023-03-29T09:16:49.448Z,13.48
2023-03-29T09:20:11.810Z,13.49
2023-03-29T09:23:39.544Z,13.63
2023-03-29T09:27:42.704Z,13.56
2023-03-29T09:31:12.288Z,13.49
2023-03-29T09:34:31.419Z,13.54
2023-03-29T09:37:43.966Z,13.50
2023-03-29T09:40:51.739Z,13.52
2023-03-29T09:44:00.620Z,13.47
2023-03-29T09:47:21.299Z,13.56
2023-03-29T09:50:31.476Z,13.64
2023-03-29T09:53:36.160Z,13.67
2023-03-29T09:57:17.841Z,13.74
2023-03-29T10:00:23.554Z,13.72
2023-03-29T10:03:36.006Z,13.72
2023-03-29T10:06:52.510Z,13.86
2023-03-29T10:09:56.140Z,13.89
2023-03-29T10:13:23.255Z,13.92
2023-03-29T10:16:38.065Z,13.98
2023-03-29T10:19:51.260Z,14.02
2023-03-29T10:22:58.452Z,14.20
2023-03-29T10:26:04.274Z,14.31
2023-03-29T10:29:08.293Z,14.43
2023-03-29T10:32:23.257Z,14.54
2023-03-29T10:35:33.369Z,14.55
2023-03-29T10:45:21.619Z,14.46
2023-03-29T10:48:32.272Z,14.43
2023-03-29T10:51:36.659Z,14.46
2023-03-29T10:54:40.342Z,14.39
2023-03-29T10:57:57.382Z,14.44
2023-03-29T11:01:02.786Z,14.51
2023-03-29T11:04:38.166Z,14.65
2023-03-29T11:12:15.935Z,14.81
2023-03-29T11:15:39.986Z,14.73
2023-03-29T11:19:29.893Z,14.87
2023-03-29T11:22:55.745Z,15.02
2023-03-29T11:26:22.563Z,15.14
2023-03-29T11:29:57.015Z,15.07
2023-03-29T11:33:29.739Z,14.97
2023-03-29T11:36:50.533Z,14.92
2023-03-29T11:40:07.223Z,14.87
2023-03-29T11:43:11.551Z,15.00
2023-03-29T11:46:20.248Z,15.10
2023-03-29T11:49:51.754Z,15.05
2023-03-29T11:53:13.868Z,15.09
2023-03-29T12:00:22.008Z,15.25
2023-03-29T12:04:04.194Z,15.25
2023-03-29T12:07:23.095Z,15.45
2023-03-29T12:10:34.426Z,15.53
2023-03-29T12:13:55.261Z,15.66
2023-03-29T12:17:08.455Z,15.83
2023-03-29T12:20:32.389Z,15.96
2023-03-29T12:23:36.689Z,15.96
2023-03-29T12:27:19.847Z,16.12
2023-03-29T12:30:59.847Z,16.13
2023-03-29T12:34:38.652Z,16.07
2023-03-29T12:38:20.773Z,16.16
2023-03-29T12:41:44.830Z,16.20
2023-03-29T12:45:05.740Z,16.14
2023-03-29T12:51:37.038Z,16.47
2023-03-29T12:54:39.021Z,16.59
2023-03-29T12:58:18.108Z,16.76
2023-03-29T13:01:35.081Z,16.81
2023-03-29T13:04:42.923Z,16.75
2023-03-29T13:07:49.873Z,16.83
2023-03-29T13:10:55.799Z,16.97
2023-03-29T13:14:26.335Z,17.41
2023-03-29T13:18:00.035Z,17.73
2023-03-29T13:21:14.233Z,18.23
2023-03-29T13:24:40.460Z,18.19
2023-03-29T13:28:07.377Z,18.22
2023-03-29T13:31:27.767Z,17.97
2023-03-29T13:34:59.916Z,17.96
2023-03-29T13:38:31.853Z,17.87
2023-03-29T13:41:46.070Z,18.01
2023-03-29T13:44:51.577Z,18.25
2023-03-29T13:48:30.730Z,18.30
2023-03-29T13:51:34.052Z,18.65
2023-03-29T13:54:43.164Z,18.53
2023-03-29T13:58:05.674Z,18.58
2023-03-29T14:01:43.084Z,18.35
2023-03-29T14:04:51.025Z,18.31
2023-03-29T14:07:57.592Z,18.37
2023-03-29T14:11:06.566Z,18.35
2023-03-29T14:17:27.280Z,18.45
2023-03-29T14:20:32.760Z,18.68
2023-03-29T14:23:37.558Z,18.81
2023-03-29T14:26:46.123Z,19.02
2023-03-29T14:30:28.355Z,19.02
2023-03-29T14:33:38.123Z,19.00
2023-03-29T14:36:40.883Z,19.09
2023-03-29T14:39:42.818Z,19.43
2023-03-29T14:42:48.667Z,19.24
2023-03-29T14:45:50.749Z,19.21
2023-03-29T14:48:56.494Z,19.40
2023-03-29T14:51:58.994Z,19.40
2023-03-29T14:55:13.036Z,19.21
2023-03-29T15:01:53.825Z,19.32
2023-03-29T15:04:57.968Z,19.00
2023-03-29T15:08:01.745Z,18.92
2023-03-29T15:11:21.819Z,18.77
2023-03-29T15:14:27.007Z,18.73
2023-03-29T15:17:49.516Z,18.56
2023-03-29T15:20:56.321Z,18.48
2023-03-29T15:23:59.726Z,18.58
2023-03-29T15:27:13.450Z,18.62
2023-03-29T15:30:18.197Z,18.62
2023-03-29T15:33:26.185Z,18.59
2023-03-29T15:36:28.101Z,18.63
2023-03-29T15:39:30.409Z,18.59
2023-03-29T15:42:32.327Z,18.54
2023-03-29T15:45:34.193Z,18.45
2023-03-29T15:48:38.794Z,18.45
2023-03-29T15:51:40.685Z,18.45
2023-03-29T15:54:43.779Z,18.44
2023-03-29T15:57:48.787Z,18.39
2023-03-29T16:00:56.720Z,18.36
2023-03-29T16:04:00.419Z,18.26
2023-03-29T16:07:02.257Z,18.28
2023-03-29T16:10:04.093Z,18.20
2023-03-29T16:13:06.380Z,18.17
2023-03-29T16:16:18.985Z,18.08
2023-03-29T16:19:22.017Z,17.97
2023-03-29T16:22:23.607Z,17.96
2023-03-29T16:25:25.351Z,17.87
2023-03-29T16:28:29.969Z,17.84
2023-03-29T16:31:33.049Z,17.81
2023-03-29T16:34:38.276Z,17.80
2023-03-29T16:37:39.892Z,17.76
2023-03-29T16:40:45.137Z,17.65
2023-03-29T16:43:46.742Z,17.67
2023-03-29T16:46:48.385Z,17.70
2023-03-29T16:49:53.505Z,17.66
2023-03-29T16:52:55.237Z,17.60
2023-03-29T16:55:57.504Z,17.58
2023-03-29T17:02:22.852Z,17.40
2023-03-29T17:05:25.321Z,17.19
2023-03-29T17:08:26.858Z,17.17
2023-03-29T17:11:29.047Z,17.22
2023-03-29T17:14:30.915Z,17.37
2023-03-29T17:17:39.022Z,17.23
2023-03-29T17:20:41.423Z,17.13
2023-03-29T17:23:43.002Z,17.04
2023-03-29T17:26:45.984Z,16.80
2023-03-29T17:29:48.731Z,17.36
2023-03-29T17:32:52.223Z,16.84
2023-03-29T17:35:53.973Z,16.69
2023-03-29T17:38:57.732Z,16.98
2023-03-29T17:41:59.727Z,17.06
2023-03-29T17:45:03.856Z,16.93
2023-03-29T17:48:12.574Z,16.92
2023-03-29T17:51:14.136Z,16.76
2023-03-29T17:54:24.665Z,16.79
2023-03-29T17:57:26.439Z,16.92
2023-03-29T18:00:28.232Z,16.81
2023-03-29T18:03:55.469Z,16.99
2023-03-29T18:07:03.275Z,16.95
2023-03-29T18:10:09.982Z,17.03
2023-03-29T18:13:13.929Z,16.89
2023-03-29T18:16:15.846Z,17.16
2023-03-29T18:19:19.726Z,17.50
2023-03-29T18:22:21.663Z,17.43
2023-03-29T18:25:28.442Z,17.42
2023-03-29T18:28:31.208Z,17.40
2023-03-29T18:31:33.082Z,17.27
2023-03-29T18:34:34.822Z,17.09
2023-03-29T18:40:53.501Z,17.29
2023-03-29T18:44:06.946Z,17.38
2023-03-29T18:47:08.652Z,17.21
2023-03-29T18:50:12.349Z,17.64
2023-03-29T18:53:14.465Z,17.73
2023-03-29T18:56:16.250Z,17.58
2023-03-29T18:59:18.041Z,17.73
2023-03-29T19:02:20.793Z,17.77
2023-03-29T19:05:22.526Z,17.80
2023-03-29T19:08:26.266Z,17.92
2023-03-29T19:11:43.680Z,17.91
2023-03-29T19:14:48.714Z,17.88
2023-03-29T19:17:52.781Z,17.79
2023-03-29T19:20:54.669Z,17.69
2023-03-29T19:23:56.407Z,17.84
2023-03-29T19:26:58.605Z,17.78
2023-03-29T19:30:00.565Z,17.64
2023-03-29T19:36:23.853Z,17.70
2023-03-29T19:39:27.337Z,17.61
2023-03-29T19:42:28.842Z,17.67
2023-03-29T19:45:30.711Z,17.72
2023-03-29T19:48:33.790Z,17.62
2023-03-29T19:51:38.368Z,17.60
2023-03-29T19:54:44.190Z,17.60
2023-03-29T19:57:54.913Z,17.51
2023-03-29T20:00:59.456Z,17.76
2023-03-29T20:04:04.706Z,17.56
2023-03-29T20:07:06.750Z,17.84
2023-03-29T20:10:11.400Z,17.69
2023-03-29T20:13:14.582Z,18.00
2023-03-29T20:16:19.287Z,17.92
2023-03-29T20:19:41.177Z,17.90
2023-03-29T20:22:47.987Z,18.13
2023-03-29T20:25:49.655Z,18.16
2023-03-29T20:28:53.582Z,18.26
2023-03-29T20:31:55.146Z,18.16
2023-03-29T20:34:56.739Z,18.11
2023-03-29T20:38:10.492Z,18.24
2023-03-29T20:41:12.152Z,18.21
2023-03-29T20:44:17.119Z,18.28
2023-03-29T20:47:19.277Z,18.12
2023-03-29T20:50:20.906Z,18.12
2023-03-29T20:53:22.400Z,18.09
2023-03-29T20:56:26.106Z,18.19
2023-03-29T20:59:35.940Z,18.31
2023-03-29T21:02:38.982Z,18.28
2023-03-29T21:05:40.803Z,18.29
2023-03-29T21:08:54.305Z,18.20
2023-03-29T21:11:56.016Z,18.21
2023-03-29T21:15:02.343Z,18.38
2023-03-29T21:18:04.573Z,18.58
2023-03-29T21:21:12.634Z,18.48
2023-03-29T21:24:18.798Z,18.55
2023-03-29T21:27:23.107Z,18.51
2023-03-29T21:30:24.837Z,18.41
2023-03-29T21:33:26.376Z,18.50
2023-03-29T21:36:29.856Z,18.53
2023-03-29T21:43:19.969Z,18.54
2023-03-29T21:46:27.547Z,18.61
2023-03-29T21:49:31.475Z,18.49
2023-03-29T21:52:39.121Z,18.55
2023-03-29T21:55:40.698Z,18.46
2023-03-29T21:58:42.407Z,18.59
2023-03-29T22:01:44.058Z,18.68
2023-03-29T22:04:48.188Z,18.51
2023-03-29T22:07:52.926Z,18.59
2023-03-29T22:10:56.727Z,18.41
2023-03-29T22:13:58.360Z,18.47
2023-03-29T22:16:59.954Z,18.52
2023-03-29T22:20:12.653Z,18.55
2023-03-29T22:23:21.606Z,18.56
2023-03-29T22:26:27.534Z,18.50
2023-03-29T22:29:31.537Z,18.46
2023-03-29T22:32:36.997Z,18.55
2023-03-29T22:35:46.058Z,18.53
2023-03-29T22:38:48.292Z,18.42
2023-03-29T22:41:56.215Z,18.62
2023-03-29T22:44:57.774Z,18.48
2023-03-29T22:47:59.770Z,18.38
2023-03-29T22:51:03.546Z,18.22
2023-03-29T22:54:05.314Z,18.06
2023-03-29T22:57:09.252Z,18.17
2023-03-29T23:00:17.574Z,17.66
2023-03-29T23:03:19.999Z,17.54
2023-03-29T23:06:31.852Z,17.47
2023-03-29T23:09:34.007Z,17.84
2023-03-29T23:12:38.355Z,17.72
2023-03-29T23:15:47.249Z,17.80
2023-03-29T23:18:51.887Z,17.52
2023-03-29T23:21:53.391Z,17.34
2023-03-29T23:24:54.977Z,17.44
2023-03-29T23:27:57.387Z,17.85
2023-03-29T23:31:06.527Z,17.79
2023-03-29T23:34:09.154Z,17.94
2023-03-29T23:37:10.696Z,18.11
2023-03-29T23:40:17.345Z,18.57
2023-03-29T23:43:18.881Z,18.66
2023-03-29T23:46:23.430Z,18.68
2023-03-29T23:49:25.074Z,18.58
2023-03-29T23:52:27.204Z,18.71
2023-03-29T23:55:34.675Z,18.83
2023-03-29T23:58:37.948Z,18.89
